createdAt,value
2019-05-26T00:01:14.631Z,143.60
2019-05-26T00:03:41.822Z,142.10
2019-05-26T00:06:08.864Z,144.07
2019-05-26T00:08:36.190Z,143.62
2019-05-26T00:11:03.379Z,142.72
2019-05-26T00:13:30.516Z,143.72
2019-05-26T00:15:57.942Z,143.02
2019-05-26T00:18:26.062Z,142.93
2019-05-26T00:20:53.238Z,142.43
2019-05-26T00:23:20.324Z,143.20
2019-05-26T00:25:47.823Z,142.37
2019-05-26T00:28:16.391Z,142.53
2019-05-26T00:30:45.251Z,144.15
2019-05-26T00:33:12.403Z,143.00
2019-05-26T00:35:39.547Z,141.85
2019-05-26T00:38:06.841Z,143.72
2019-05-26T00:40:34.073Z,144.20
2019-05-26T00:43:01.104Z,145.45
2019-05-26T00:45:28.183Z,143.95
2019-05-26T00:47:55.713Z,142.28
2019-05-26T00:50:22.779Z,142.25
2019-05-26T00:52:49.830Z,142.57
2019-05-26T00:55:17.239Z,142.95
2019-05-26T00:57:44.523Z,144.13
2019-05-26T01:00:12.279Z,143.30
2019-05-26T01:02:39.867Z,144.93
2019-05-26T01:05:08.761Z,143.37
2019-05-26T01:07:36.266Z,142.80
2019-05-26T01:10:04.492Z,141.70
2019-05-26T01:12:31.550Z,141.92
2019-05-26T01:14:58.597Z,142.57
2019-05-26T01:17:25.744Z,142.03
2019-05-26T01:19:54.614Z,142.70
2019-05-26T01:22:21.747Z,141.85
2019-05-26T01:24:48.793Z,142.10
2019-05-26T01:27:15.847Z,141.10
2019-05-26T01:29:43.032Z,141.15
2019-05-26T01:32:10.135Z,142.10
2019-05-26T01:34:37.305Z,141.32
2019-05-26T01:37:05.367Z,142.60
2019-05-26T01:39:32.609Z,141.70
2019-05-26T01:41:59.967Z,141.10
2019-05-26T01:44:27.250Z,142.32
2019-05-26T01:46:54.291Z,142.07
2019-05-26T01:49:21.301Z,142.53
2019-05-26T01:51:48.373Z,142.62
2019-05-26T01:54:15.419Z,142.10
2019-05-26T01:56:42.483Z,141.75
2019-05-26T01:59:09.545Z,142.37
2019-05-26T02:01:36.817Z,141.40
2019-05-26T02:04:04.254Z,141.92
2019-05-26T02:06:31.381Z,142.68
2019-05-26T02:08:59.612Z,142.32
2019-05-26T02:11:28.460Z,141.05
2019-05-26T02:13:55.544Z,140.55
2019-05-26T02:16:22.702Z,141.55
2019-05-26T02:18:49.793Z,141.28
2019-05-26T02:21:16.868Z,142.22
2019-05-26T02:23:45.285Z,142.05
2019-05-26T02:26:12.323Z,141.47
2019-05-26T02:28:40.590Z,141.40
2019-05-26T02:31:07.946Z,140.10
2019-05-26T02:33:34.984Z,142.05
2019-05-26T02:36:02.053Z,141.05
2019-05-26T02:38:30.919Z,141.25
2019-05-26T02:40:57.952Z,140.65
2019-05-26T02:43:25.159Z,141.12
2019-05-26T02:45:52.407Z,141.25
2019-05-26T02:48:19.461Z,141.75
2019-05-26T02:50:48.396Z,139.95
2019-05-26T02:53:15.426Z,140.77
2019-05-26T02:55:42.510Z,140.70
2019-05-26T02:58:09.594Z,140.97
2019-05-26T03:00:41.441Z,140.25
2019-05-26T03:03:09.226Z,140.62
2019-05-26T03:05:37.125Z,142.35
2019-05-26T03:08:06.394Z,141.85
2019-05-26T03:10:34.146Z,143.65
2019-05-26T03:13:03.545Z,142.13
2019-05-26T03:15:34.176Z,142.25
2019-05-26T03:18:04.186Z,141.43
2019-05-26T03:20:36.460Z,142.77
2019-05-26T03:23:06.671Z,143.35
2019-05-26T03:25:34.973Z,139.07
2019-05-26T03:28:02.019Z,139.57
2019-05-26T03:30:29.071Z,140.45
2019-05-26T03:32:56.147Z,140.00
2019-05-26T03:35:23.176Z,140.37
2019-05-26T03:37:50.284Z,139.95
2019-05-26T03:40:17.290Z,140.28
2019-05-26T03:42:44.329Z,140.12
2019-05-26T03:45:22.564Z,141.12
2019-05-26T03:47:49.621Z,139.95
2019-05-26T03:50:16.869Z,140.75
2019-05-26T03:52:43.947Z,140.20
2019-05-26T03:55:11.164Z,140.50
2019-05-26T03:57:38.437Z,142.05
2019-05-26T04:00:06.101Z,141.85
2019-05-26T04:02:34.455Z,141.43
2019-05-26T04:05:01.526Z,142.40
2019-05-26T04:07:28.549Z,143.93
2019-05-26T04:10:04.662Z,143.32
2019-05-26T04:12:24.887Z,143.25
2019-05-26T04:14:52.004Z,143.05
2019-05-26T04:17:19.061Z,144.87
2019-05-26T04:19:46.093Z,143.65
2019-05-26T04:22:13.219Z,144.53
2019-05-26T04:24:41.366Z,144.40
2019-05-26T04:27:08.412Z,145.75
2019-05-26T04:29:35.475Z,145.77
2019-05-26T04:32:02.596Z,147.65
2019-05-26T04:34:29.616Z,147.72
2019-05-26T04:36:57.816Z,146.57
2019-05-26T04:39:24.831Z,147.37
2019-05-26T04:41:52.011Z,148.10
2019-05-26T04:44:19.477Z,145.92
2019-05-26T04:46:46.870Z,146.40
2019-05-26T04:49:13.912Z,146.45
2019-05-26T04:51:40.994Z,148.32
2019-05-26T04:54:08.012Z,148.35
2019-05-26T04:56:35.059Z,148.60
2019-05-26T04:59:02.129Z,149.55
2019-05-26T05:01:29.251Z,149.82
2019-05-26T05:03:56.306Z,149.00
2019-05-26T05:06:23.550Z,150.30
2019-05-26T05:09:03.968Z,151.27
2019-05-26T05:11:35.779Z,152.57
2019-05-26T05:14:07.615Z,154.78
2019-05-26T05:16:36.217Z,152.85
2019-05-26T05:19:03.256Z,152.72
2019-05-26T05:21:30.306Z,153.60
2019-05-26T05:23:57.390Z,154.60
2019-05-26T05:26:24.421Z,154.70
2019-05-26T05:28:51.456Z,151.45
2019-05-26T05:31:18.510Z,150.72
2019-05-26T05:33:46.706Z,150.50
2019-05-26T05:36:13.802Z,148.45
2019-05-26T05:38:40.843Z,149.72
2019-05-26T05:41:07.891Z,147.98
2019-05-26T05:43:34.960Z,150.32
2019-05-26T05:46:02.042Z,148.38
2019-05-26T05:48:29.095Z,149.38
2019-05-26T05:51:00.554Z,151.55
2019-05-26T05:53:34.233Z,150.55
2019-05-26T05:56:08.968Z,151.75
2019-05-26T05:58:41.131Z,152.80
2019-05-26T06:01:12.524Z,152.57
2019-05-26T06:04:14.058Z,152.20
2019-05-26T06:06:48.516Z,154.47
2019-05-26T06:09:30.084Z,154.12
2019-05-26T06:11:58.612Z,152.65
2019-05-26T06:14:25.661Z,153.57
2019-05-26T06:16:52.728Z,154.15
2019-05-26T06:19:23.679Z,153.18
2019-05-26T06:21:50.935Z,153.97
2019-05-26T06:24:18.592Z,156.25
2019-05-26T06:26:48.010Z,153.80
2019-05-26T06:29:15.108Z,153.18
2019-05-26T06:31:56.046Z,154.35
2019-05-26T06:34:23.513Z,154.60
2019-05-26T06:36:51.824Z,154.93
2019-05-26T06:39:20.738Z,156.18
2019-05-26T06:41:47.813Z,154.93
2019-05-26T06:44:16.043Z,155.07
2019-05-26T06:49:55.257Z,154.05
2019-05-26T06:52:22.904Z,153.35
2019-05-26T06:54:50.000Z,154.68
2019-05-26T06:57:18.729Z,157.62
2019-05-26T06:59:48.721Z,156.35
2019-05-26T07:02:22.455Z,155.52
2019-05-26T07:04:51.743Z,158.03
2019-05-26T07:07:20.892Z,162.62
2019-05-26T07:09:48.166Z,161.60
2019-05-26T07:12:16.869Z,162.97
2019-05-26T07:14:48.683Z,164.47
2019-05-26T07:17:15.833Z,161.40
2019-05-26T07:19:44.019Z,168.40
2019-05-26T07:22:14.577Z,162.35
2019-05-26T07:24:45.766Z,160.80
2019-05-26T07:27:13.174Z,157.47
2019-05-26T07:29:43.225Z,159.00
2019-05-26T07:32:10.377Z,157.62
2019-05-26T07:34:38.611Z,155.65
2019-05-26T07:37:05.782Z,156.47
2019-05-26T07:39:32.992Z,159.05
2019-05-26T07:42:09.822Z,158.70
2019-05-26T07:44:30.467Z,157.57
2019-05-26T07:46:57.584Z,156.05
2019-05-26T07:49:24.903Z,158.75
2019-05-26T07:51:53.929Z,156.28
2019-05-26T07:54:25.868Z,157.52
2019-05-26T07:56:53.498Z,159.05
2019-05-26T07:59:24.366Z,159.87
2019-05-26T08:01:51.546Z,157.03
2019-05-26T08:04:18.989Z,156.90
2019-05-26T08:06:47.425Z,158.63
2019-05-26T08:09:17.845Z,159.90
2019-05-26T08:11:46.451Z,161.75
2019-05-26T08:14:16.148Z,162.70
2019-05-26T08:16:43.618Z,161.15
2019-05-26T08:19:10.988Z,160.50
2019-05-26T08:21:38.592Z,156.47
2019-05-26T08:24:08.185Z,157.95
2019-05-26T08:26:35.352Z,160.37
2019-05-26T08:29:06.581Z,159.52
2019-05-26T08:31:55.860Z,162.47
2019-05-26T08:34:24.570Z,165.97
2019-05-26T08:36:54.576Z,160.95
2019-05-26T08:39:22.135Z,164.67
2019-05-26T08:41:51.721Z,168.65
2019-05-26T08:44:18.795Z,169.80
2019-05-26T08:46:56.916Z,161.40
2019-05-26T08:49:39.560Z,166.90
2019-05-26T08:52:27.479Z,161.85
2019-05-26T08:54:55.768Z,160.07
2019-05-26T08:57:23.332Z,165.37
2019-05-26T08:59:52.122Z,161.37
2019-05-26T09:02:27.373Z,158.60
2019-05-26T09:04:59.110Z,159.63
2019-05-26T09:07:26.974Z,159.10
2019-05-26T09:09:54.169Z,159.67
2019-05-26T09:12:25.823Z,160.35
2019-05-26T09:14:54.573Z,161.37
2019-05-26T09:17:21.801Z,165.75
2019-05-26T09:20:11.647Z,163.10
2019-05-26T09:22:39.159Z,165.32
2019-05-26T09:25:11.581Z,164.97
2019-05-26T09:27:38.685Z,161.15
2019-05-26T09:30:25.771Z,162.43
2019-05-26T09:32:52.824Z,158.75
2019-05-26T09:35:19.881Z,159.67
2019-05-26T09:37:48.207Z,161.73
2019-05-26T09:40:15.899Z,157.67
2019-05-26T09:42:46.481Z,158.68
2019-05-26T09:45:17.229Z,159.85
2019-05-26T09:47:50.350Z,156.60
2019-05-26T09:50:17.802Z,158.27
2019-05-26T09:52:47.403Z,158.80
2019-05-26T09:55:17.341Z,159.72
2019-05-26T09:57:44.667Z,156.93
2019-05-26T10:00:16.266Z,159.85
2019-05-26T10:03:26.515Z,159.20
2019-05-26T10:06:09.764Z,156.90
2019-05-26T10:08:37.322Z,154.95
2019-05-26T10:11:04.422Z,153.65
2019-05-26T10:13:32.249Z,154.75
2019-05-26T10:15:59.678Z,157.20
2019-05-26T10:18:26.736Z,155.63
2019-05-26T10:20:54.076Z,155.55
2019-05-26T10:23:25.068Z,157.10
2019-05-26T10:25:52.252Z,155.63
2019-05-26T10:28:19.307Z,154.25
2019-05-26T10:30:46.387Z,155.25
2019-05-26T10:33:13.834Z,153.35
2019-05-26T10:35:41.965Z,155.93
2019-05-26T10:38:10.258Z,153.45
2019-05-26T10:40:38.926Z,153.40
2019-05-26T10:43:07.435Z,154.32
2019-05-26T10:45:35.939Z,152.43
2019-05-26T10:48:03.243Z,154.20
2019-05-26T10:50:31.287Z,156.80
2019-05-26T10:53:02.427Z,158.78
2019-05-26T10:55:33.301Z,156.00
2019-05-26T10:58:25.969Z,165.37
2019-05-26T11:01:02.685Z,158.40
2019-05-26T11:03:50.361Z,162.37
2019-05-26T11:06:19.252Z,163.90
2019-05-26T11:08:47.909Z,159.03
2019-05-26T11:11:18.676Z,161.03
2019-05-26T11:13:45.795Z,158.78
2019-05-26T11:16:26.083Z,158.82
2019-05-26T11:18:53.213Z,154.97
2019-05-26T11:21:20.296Z,158.25
2019-05-26T11:23:48.032Z,158.97
2019-05-26T11:26:15.153Z,162.47
2019-05-26T11:28:44.802Z,156.37
2019-05-26T11:31:12.033Z,159.70
2019-05-26T11:33:39.313Z,156.63
2019-05-26T11:36:06.608Z,160.37
2019-05-26T11:38:35.864Z,157.50
2019-05-26T11:41:06.315Z,159.35
2019-05-26T11:43:37.134Z,157.07
2019-05-26T11:46:17.303Z,162.50
2019-05-26T11:48:47.425Z,159.75
2019-05-26T11:51:23.550Z,163.40
2019-05-26T11:53:59.480Z,159.00
2019-05-26T11:56:31.144Z,164.43
2019-05-26T11:59:04.075Z,162.12
2019-05-26T12:01:35.868Z,159.15
2019-05-26T12:04:06.891Z,158.30
2019-05-26T12:06:38.594Z,155.57
2019-05-26T12:09:07.607Z,154.93
2019-05-26T12:11:35.316Z,158.57
2019-05-26T12:14:02.708Z,155.15
2019-05-26T12:16:30.118Z,164.52
2019-05-26T12:19:02.782Z,159.50
2019-05-26T12:21:30.059Z,161.07
2019-05-26T12:23:57.243Z,154.63
2019-05-26T12:26:24.532Z,159.00
2019-05-26T12:28:51.727Z,154.15
2019-05-26T12:31:18.824Z,159.43
2019-05-26T12:33:46.162Z,157.07
2019-05-26T12:36:14.376Z,157.03
2019-05-26T12:38:50.499Z,158.65
2019-05-26T12:41:19.354Z,158.25
2019-05-26T12:43:46.532Z,156.60
2019-05-26T12:46:15.359Z,158.25
2019-05-26T12:48:42.994Z,156.52
2019-05-26T12:51:10.294Z,160.28
2019-05-26T12:53:37.359Z,159.50
2019-05-26T12:56:05.863Z,156.70
2019-05-26T12:58:32.963Z,158.95
2019-05-26T13:01:00.022Z,162.27
2019-05-26T13:03:27.902Z,161.35
2019-05-26T13:05:54.993Z,166.47
2019-05-26T13:08:22.121Z,164.03
2019-05-26T13:10:54.162Z,167.22
2019-05-26T13:13:21.721Z,167.03
2019-05-26T13:15:54.015Z,159.22
2019-05-26T13:18:21.688Z,162.75
2019-05-26T13:20:52.957Z,161.55
2019-05-26T13:23:22.293Z,163.72
2019-05-26T13:25:49.914Z,163.85
2019-05-26T13:31:54.651Z,159.82
2019-05-26T13:34:25.508Z,156.47
2019-05-26T13:36:58.242Z,157.35
2019-05-26T13:39:25.436Z,159.50
2019-05-26T13:42:16.704Z,156.52
2019-05-26T13:45:21.098Z,155.70
2019-05-26T13:47:37.204Z,158.97
2019-05-26T13:50:11.510Z,160.48
2019-05-26T13:52:40.526Z,159.05
2019-05-26T13:55:08.575Z,159.60
2019-05-26T13:57:39.661Z,158.78
2019-05-26T14:00:08.170Z,163.30
2019-05-26T14:02:38.594Z,162.10
2019-05-26T14:05:09.895Z,156.52
2019-05-26T14:07:37.566Z,162.95
2019-05-26T14:10:07.405Z,163.10
2019-05-26T14:12:34.492Z,162.70
2019-05-26T14:15:01.676Z,159.95
2019-05-26T14:17:34.778Z,161.22
2019-05-26T14:20:07.165Z,160.45
2019-05-26T14:22:35.298Z,165.77
2019-05-26T14:25:04.446Z,170.92
2019-05-26T14:27:31.568Z,167.70
2019-05-26T14:30:14.153Z,168.70
2019-05-26T14:32:49.650Z,165.70
2019-05-26T14:35:24.615Z,166.65
2019-05-26T14:37:55.282Z,171.07
2019-05-26T14:40:22.439Z,165.05
2019-05-26T14:42:54.453Z,159.85
2019-05-26T14:45:21.657Z,158.42
2019-05-26T14:48:05.035Z,162.75
2019-05-26T14:50:54.994Z,158.50
2019-05-26T14:53:23.745Z,165.07
2019-05-26T14:56:01.126Z,162.65
2019-05-26T14:58:30.097Z,165.68
2019-05-26T15:00:57.194Z,160.78
2019-05-26T15:03:24.286Z,160.00
2019-05-26T15:06:05.166Z,161.97
2019-05-26T15:08:22.182Z,156.72
2019-05-26T15:10:49.630Z,155.25
2019-05-26T15:13:16.898Z,156.35
2019-05-26T15:15:44.420Z,159.72
2019-05-26T15:18:12.588Z,155.90
2019-05-26T15:20:46.644Z,156.87
2019-05-26T15:23:15.102Z,159.32
2019-05-26T15:25:42.200Z,162.65
2019-05-26T15:28:12.617Z,157.72
2019-05-26T15:30:43.199Z,158.45
2019-05-26T15:33:12.325Z,160.82
2019-05-26T15:35:46.144Z,159.07
2019-05-26T15:38:19.457Z,165.00
2019-05-26T15:40:46.645Z,163.52
2019-05-26T15:43:15.938Z,159.85
2019-05-26T15:45:55.055Z,164.32
2019-05-26T15:48:27.661Z,163.20
2019-05-26T15:50:54.909Z,163.35
2019-05-26T15:53:22.200Z,163.65
2019-05-26T15:55:52.753Z,162.22
2019-05-26T15:58:22.173Z,168.55
2019-05-26T16:00:52.709Z,166.18
2019-05-26T16:03:21.866Z,159.93
2019-05-26T16:05:49.077Z,157.03
2019-05-26T16:08:21.202Z,161.25
2019-05-26T16:10:49.427Z,159.82
2019-05-26T16:13:20.442Z,162.55
2019-05-26T16:15:51.623Z,161.22
2019-05-26T16:18:25.131Z,161.52
2019-05-26T16:21:02.754Z,165.60
2019-05-26T16:23:27.775Z,165.97
2019-05-26T16:25:59.938Z,164.82
2019-05-26T16:28:29.206Z,167.00
2019-05-26T16:30:57.119Z,166.28
2019-05-26T16:33:29.343Z,163.35
2019-05-26T16:35:58.605Z,163.45
2019-05-26T16:38:28.787Z,157.35
2019-05-26T16:40:57.033Z,163.70
2019-05-26T16:43:28.435Z,164.60
2019-05-26T16:45:58.665Z,163.87
2019-05-26T16:48:30.929Z,165.52
2019-05-26T16:51:00.508Z,163.28
2019-05-26T16:53:32.805Z,163.22
2019-05-26T16:56:02.358Z,160.50
2019-05-26T16:58:32.658Z,161.30
2019-05-26T17:01:11.253Z,162.35
2019-05-26T17:03:43.028Z,161.68
2019-05-26T17:06:14.052Z,160.88
2019-05-26T17:08:43.144Z,160.90
2019-05-26T17:11:16.111Z,162.27
2019-05-26T17:13:43.158Z,159.78
2019-05-26T17:16:10.418Z,161.92
2019-05-26T17:18:38.730Z,162.30
2019-05-26T17:21:07.546Z,161.88
2019-05-26T17:23:34.690Z,164.67
2019-05-26T17:26:01.890Z,159.00
2019-05-26T17:28:29.011Z,162.62
2019-05-26T17:30:56.139Z,156.28
2019-05-26T17:33:23.247Z,162.03
2019-05-26T17:35:50.292Z,158.22
2019-05-26T17:38:17.567Z,161.92
2019-05-26T17:40:44.674Z,164.80
2019-05-26T17:43:12.847Z,159.37
2019-05-26T17:45:39.940Z,159.12
2019-05-26T17:48:07.477Z,159.87
2019-05-26T17:50:34.674Z,164.95
2019-05-26T17:53:01.739Z,160.22
2019-05-26T17:55:28.997Z,153.23
2019-05-26T17:57:56.736Z,155.32
2019-05-26T18:00:26.446Z,156.32
2019-05-26T18:02:55.043Z,154.80
2019-05-26T18:05:29.677Z,156.67
2019-05-26T18:08:02.537Z,153.38
2019-05-26T18:10:35.640Z,159.30
2019-05-26T18:13:03.496Z,152.38
2019-05-26T18:15:39.884Z,153.65
2019-05-26T18:18:07.046Z,154.40
2019-05-26T18:20:36.143Z,154.18
2019-05-26T18:23:03.398Z,153.62
2019-05-26T18:25:32.681Z,151.78
2019-05-26T18:28:01.006Z,152.47
2019-05-26T18:30:28.516Z,152.43
2019-05-26T18:32:55.618Z,151.70
2019-05-26T18:35:22.688Z,149.62
2019-05-26T18:37:52.564Z,150.55
2019-05-26T18:40:20.995Z,149.60
2019-05-26T18:42:48.046Z,152.72
2019-05-26T18:45:15.592Z,151.25
2019-05-26T18:47:42.815Z,150.32
2019-05-26T18:50:10.098Z,149.45
2019-05-26T18:52:37.416Z,151.40
2019-05-26T18:55:05.100Z,153.05
2019-05-26T18:57:32.221Z,149.90
2019-05-26T18:59:59.409Z,149.18
2019-05-26T19:02:44.905Z,148.82
2019-05-26T19:05:33.891Z,150.75
2019-05-26T19:08:00.258Z,147.35
2019-05-26T19:10:27.355Z,150.90
2019-05-26T19:12:54.431Z,150.70
2019-05-26T19:15:23.334Z,151.40
2019-05-26T19:17:50.393Z,151.45
2019-05-26T19:20:17.626Z,150.03
2019-05-26T19:22:44.738Z,149.40
2019-05-26T19:25:13.614Z,148.28
2019-05-26T19:27:40.787Z,148.25
2019-05-26T19:30:09.583Z,149.93
2019-05-26T19:32:36.778Z,148.45
2019-05-26T19:35:04.723Z,148.40
2019-05-26T19:37:32.741Z,149.15
2019-05-26T19:39:59.810Z,147.75
2019-05-26T19:42:27.439Z,146.68
2019-05-26T19:44:54.640Z,150.12
2019-05-26T19:47:23.748Z,146.75
2019-05-26T19:49:55.420Z,148.43
2019-05-26T19:52:22.542Z,148.78
2019-05-26T19:54:56.621Z,147.45
2019-05-26T19:57:26.451Z,147.05
2019-05-26T19:59:59.789Z,147.47
2019-05-26T20:02:35.060Z,147.00
2019-05-26T20:05:05.071Z,147.13
2019-05-26T20:07:36.691Z,148.20
2019-05-26T20:10:05.960Z,148.95
2019-05-26T20:12:33.251Z,146.95
2019-05-26T20:15:02.706Z,147.98
2019-05-26T20:17:31.130Z,148.95
2019-05-26T20:20:00.191Z,148.82
2019-05-26T20:22:28.673Z,145.50
2019-05-26T20:24:57.656Z,148.80
2019-05-26T20:27:27.204Z,145.20
2019-05-26T20:29:57.793Z,147.60
2019-05-26T20:32:27.585Z,145.30
2019-05-26T20:34:55.699Z,147.93
2019-05-26T20:37:25.845Z,148.75
2019-05-26T20:39:54.669Z,149.25
2019-05-26T20:42:23.895Z,147.10
2019-05-26T20:44:51.453Z,148.90
2019-05-26T20:47:18.995Z,147.60
2019-05-26T20:49:47.242Z,145.82
2019-05-26T20:52:14.476Z,146.37
2019-05-26T20:54:41.928Z,145.62
2019-05-26T20:57:09.038Z,145.60
2019-05-26T20:59:40.812Z,148.07
2019-05-26T21:02:07.872Z,147.60
2019-05-26T21:04:39.632Z,148.07
2019-05-26T21:07:09.490Z,146.80
2019-05-26T21:09:36.515Z,147.57
2019-05-26T21:12:03.749Z,147.57
2019-05-26T21:14:30.884Z,147.00
2019-05-26T21:16:58.015Z,147.10
2019-05-26T21:19:25.962Z,147.85
2019-05-26T21:21:55.325Z,146.30
2019-05-26T21:24:23.067Z,144.50
2019-05-26T21:26:50.259Z,144.15
2019-05-26T21:29:17.733Z,146.40
2019-05-26T21:31:44.959Z,145.20
2019-05-26T21:34:12.025Z,145.77
2019-05-26T21:36:39.060Z,146.50
2019-05-26T21:39:10.975Z,145.50
2019-05-26T21:41:40.503Z,145.97
2019-05-26T21:44:07.869Z,144.85
2019-05-26T21:46:35.081Z,145.25
2019-05-26T21:49:04.119Z,144.40
2019-05-26T21:51:33.229Z,146.80
2019-05-26T21:54:02.093Z,146.72
2019-05-26T21:56:30.491Z,146.25
2019-05-26T21:58:58.525Z,147.00
2019-05-26T22:01:26.018Z,144.82
2019-05-26T22:03:53.242Z,145.45
2019-05-26T22:06:29.109Z,145.12
2019-05-26T22:09:06.282Z,144.62
2019-05-26T22:11:33.358Z,147.07
2019-05-26T22:14:08.068Z,145.80
2019-05-26T22:16:35.691Z,146.05
2019-05-26T22:19:02.861Z,145.77
2019-05-26T22:21:31.459Z,144.90
2019-05-26T22:24:01.826Z,145.77
2019-05-26T22:26:28.887Z,145.25
2019-05-26T22:28:57.569Z,146.35
2019-05-26T22:31:26.345Z,146.70
2019-05-26T22:33:53.355Z,143.52
2019-05-26T22:36:21.634Z,145.35
2019-05-26T22:38:48.676Z,144.43
2019-05-26T22:41:15.783Z,143.65
2019-05-26T22:43:45.653Z,144.25
2019-05-26T22:46:15.880Z,143.62
2019-05-26T22:48:43.016Z,145.90
2019-05-26T22:51:10.124Z,144.07
2019-05-26T22:53:38.402Z,142.55
2019-05-26T22:56:05.503Z,144.37
2019-05-26T22:58:32.670Z,144.43
2019-05-26T23:00:59.720Z,146.25
2019-05-26T23:03:27.402Z,144.82
2019-05-26T23:05:54.480Z,144.70
2019-05-26T23:08:22.069Z,147.13
2019-05-26T23:10:49.192Z,147.30
2019-05-26T23:13:16.256Z,146.10
2019-05-26T23:15:43.306Z,146.57
2019-05-26T23:18:10.344Z,145.92
2019-05-26T23:20:37.399Z,145.47
2019-05-26T23:23:04.458Z,147.50
2019-05-26T23:25:31.497Z,145.68
2019-05-26T23:27:58.538Z,146.00
2019-05-26T23:30:25.643Z,145.00
2019-05-26T23:32:52.735Z,145.95
2019-05-26T23:35:19.835Z,145.00
2019-05-26T23:37:46.847Z,144.17
2019-05-26T23:40:14.527Z,144.87
2019-05-26T23:42:42.007Z,145.15
2019-05-26T23:45:09.349Z,144.53
2019-05-26T23:47:36.368Z,146.43
2019-05-26T23:50:04.617Z,145.20
2019-05-26T23:52:31.712Z,144.50
2019-05-26T23:54:58.777Z,145.00
2019-05-26T23:57:26.058Z,143.90
2019-05-26T23:59:53.328Z,144.22
